createdAt,value
2022-09-13T00:00:59.891Z,98969.19
2022-09-13T00:03:27.069Z,98970.66
2022-09-13T00:05:54.186Z,98971.00
2022-09-13T00:08:21.316Z,98970.56
2022-09-13T00:10:48.430Z,98977.47
2022-09-13T00:13:16.435Z,98978.97
2022-09-13T00:15:50.352Z,98980.75
2022-09-13T00:18:18.535Z,98967.47
2022-09-13T00:20:45.790Z,98963.16
2022-09-13T00:23:13.529Z,98967.03
2022-09-13T00:25:40.598Z,98975.53
2022-09-13T00:28:07.587Z,98978.59
2022-09-13T00:30:34.451Z,98982.31
2022-09-13T00:33:04.810Z,98981.50
2022-09-13T00:35:31.960Z,98985.03
2022-09-13T00:38:00.239Z,98982.31
2022-09-13T00:40:27.064Z,98985.50
2022-09-13T00:42:53.639Z,98975.53
2022-09-13T00:45:20.297Z,98972.47
2022-09-13T00:47:59.119Z,98970.97
2022-09-13T00:50:35.306Z,98975.75
2022-09-13T00:53:13.175Z,98968.84
2022-09-13T00:55:42.437Z,98960.44
2022-09-13T00:58:20.927Z,98958.75
2022-09-13T01:00:48.661Z,98954.66
2022-09-13T01:03:16.836Z,98956.38
2022-09-13T01:05:53.379Z,98949.47
2022-09-13T01:08:23.248Z,98937.88
2022-09-13T01:10:56.055Z,98940.38
2022-09-13T01:13:34.264Z,98951.94
2022-09-13T01:16:01.166Z,98962.72
2022-09-13T01:18:27.721Z,98952.50
2022-09-13T01:21:21.679Z,98946.97
2022-09-13T01:24:06.629Z,98960.09
2022-09-13T01:27:10.547Z,98964.66
2022-09-13T01:30:01.884Z,98953.75
2022-09-13T01:32:47.197Z,98971.25
2022-09-13T01:35:30.667Z,98974.66
2022-09-13T01:38:15.498Z,98969.19
2022-09-13T01:41:04.699Z,98967.59
2022-09-13T01:44:12.873Z,98951.94
2022-09-13T01:46:50.161Z,98957.38
2022-09-13T01:49:28.442Z,98958.06
2022-09-13T01:52:01.951Z,98962.72
2022-09-13T01:54:43.680Z,98967.72
2022-09-13T01:57:31.900Z,98965.66
2022-09-13T02:00:08.510Z,98952.84
2022-09-13T02:02:44.922Z,98943.88
2022-09-13T02:05:21.423Z,98936.50
2022-09-13T02:07:58.924Z,98941.47
2022-09-13T02:10:33.380Z,98929.44
2022-09-13T02:13:01.885Z,98926.38
2022-09-13T02:15:36.941Z,98926.06
2022-09-13T02:18:25.113Z,98927.66
2022-09-13T02:20:53.745Z,98928.56
2022-09-13T02:23:28.199Z,98916.06
2022-09-13T02:25:56.772Z,98912.09
2022-09-13T02:28:31.758Z,98907.44
2022-09-13T02:31:00.036Z,98902.09
2022-09-13T02:33:31.112Z,98903.34
2022-09-13T02:36:13.255Z,98900.63
2022-09-13T02:38:45.402Z,98897.00
2022-09-13T02:41:18.004Z,98912.66
2022-09-13T02:43:51.066Z,98918.44
2022-09-13T02:47:02.819Z,98919.03
2022-09-13T02:49:43.024Z,98915.16
2022-09-13T02:52:17.035Z,98908.91
2022-09-13T02:54:56.367Z,98904.91
2022-09-13T02:57:52.238Z,98892.91
2022-09-13T03:00:19.488Z,98891.41
2022-09-13T03:02:48.669Z,98892.69
2022-09-13T03:05:15.309Z,98890.41
2022-09-13T03:07:41.869Z,98873.38
2022-09-13T03:10:13.795Z,98879.28
2022-09-13T03:12:58.881Z,98880.41
2022-09-13T03:15:59.980Z,98888.81
2022-09-13T03:19:03.563Z,98882.81
2022-09-13T03:22:07.758Z,98896.28
2022-09-13T03:25:03.605Z,98900.16
2022-09-13T03:27:54.533Z,98910.28
2022-09-13T03:30:21.217Z,98903.34
2022-09-13T03:32:59.783Z,98915.38
2022-09-13T03:35:35.874Z,98915.03
2022-09-13T03:38:10.355Z,98915.50
2022-09-13T03:40:51.718Z,98914.47
2022-09-13T03:43:35.763Z,98915.72
2022-09-13T03:46:10.877Z,98906.84
2022-09-13T03:48:40.679Z,98905.06
2022-09-13T03:51:09.601Z,98897.66
2022-09-13T03:53:42.452Z,98904.69
2022-09-13T03:56:16.851Z,98916.50
2022-09-13T03:58:43.912Z,98912.00
2022-09-13T04:01:10.574Z,98909.72
2022-09-13T04:03:40.267Z,98905.03
2022-09-13T04:06:07.303Z,98911.75
2022-09-13T04:08:33.902Z,98910.63
2022-09-13T04:11:01.523Z,98905.63
2022-09-13T04:13:28.457Z,98911.50
2022-09-13T04:15:55.044Z,98902.19
2022-09-13T04:18:21.658Z,98883.56
2022-09-13T04:20:59.316Z,98871.97
2022-09-13T04:23:28.022Z,98861.19
2022-09-13T04:25:54.990Z,98859.03
2022-09-13T04:28:22.706Z,98848.56
2022-09-13T04:30:50.130Z,98832.22
2022-09-13T04:33:19.702Z,98820.72
2022-09-13T04:35:46.218Z,98806.72
2022-09-13T04:38:12.758Z,98820.31
2022-09-13T04:40:39.509Z,98861.88
2022-09-13T04:43:06.276Z,98920.53
2022-09-13T04:45:32.840Z,98936.72
2022-09-13T04:48:00.456Z,98906.72
2022-09-13T04:50:27.021Z,98894.91
2022-09-13T04:52:55.404Z,98905.81
2022-09-13T04:55:22.398Z,98906.22
2022-09-13T04:57:53.270Z,98904.78
2022-09-13T05:00:19.929Z,98906.16
2022-09-13T05:02:46.564Z,98925.34
2022-09-13T05:05:13.247Z,98921.13
2022-09-13T05:07:39.764Z,98908.47
2022-09-13T05:10:06.799Z,98916.44
2022-09-13T05:12:33.346Z,98913.75
2022-09-13T05:14:59.858Z,98915.69
2022-09-13T05:17:26.524Z,98918.78
2022-09-13T05:19:53.149Z,98915.78
2022-09-13T05:22:19.751Z,98897.91
2022-09-13T05:24:46.582Z,98898.47
2022-09-13T05:27:13.150Z,98900.22
2022-09-13T05:29:39.663Z,98886.25
2022-09-13T05:32:06.214Z,98897.63
2022-09-13T05:34:32.765Z,98905.13
2022-09-13T05:36:59.319Z,98890.69
2022-09-13T05:39:36.037Z,98885.34
2022-09-13T05:42:10.430Z,98882.91
2022-09-13T05:44:36.924Z,98878.91
2022-09-13T05:47:03.457Z,98854.59
2022-09-13T05:49:30.009Z,98847.03
2022-09-13T05:51:56.677Z,98856.31
2022-09-13T05:54:23.174Z,98837.22
2022-09-13T05:56:52.553Z,98842.00
2022-09-13T05:59:19.073Z,98830.75
2022-09-13T06:01:45.676Z,98837.38
2022-09-13T06:04:13.047Z,98848.53
2022-09-13T06:06:39.547Z,98852.78
2022-09-13T06:09:08.438Z,98857.09
2022-09-13T06:11:34.959Z,98865.31
2022-09-13T06:14:01.724Z,98867.81
2022-09-13T06:16:28.309Z,98865.63
2022-09-13T06:18:55.091Z,98861.81
2022-09-13T06:21:28.274Z,98860.75
2022-09-13T06:23:56.153Z,98864.50
2022-09-13T06:26:25.507Z,98854.13
2022-09-13T06:28:55.505Z,98851.50
2022-09-13T06:31:24.932Z,98846.13
2022-09-13T06:34:00.338Z,98831.25
2022-09-13T06:36:27.489Z,98838.75
2022-09-13T06:38:54.371Z,98845.09
2022-09-13T06:41:23.419Z,98845.59
2022-09-13T06:43:58.684Z,98846.41
2022-09-13T06:46:28.403Z,98827.75
2022-09-13T06:48:55.712Z,98832.63
2022-09-13T06:51:24.596Z,98839.22
2022-09-13T06:53:52.444Z,98841.03
2022-09-13T06:56:24.581Z,98837.44
2022-09-13T06:58:54.738Z,98841.88
2022-09-13T07:01:29.715Z,98848.22
2022-09-13T07:04:08.084Z,98861.25
2022-09-13T07:06:43.713Z,98870.13
2022-09-13T07:09:17.256Z,98878.44
2022-09-13T07:11:44.830Z,98865.00
2022-09-13T07:14:17.855Z,98870.66
2022-09-13T07:16:46.174Z,98872.84
2022-09-13T07:19:22.901Z,98874.16
2022-09-13T07:21:50.461Z,98885.34
2022-09-13T07:24:17.741Z,98888.47
2022-09-13T07:26:45.197Z,98887.41
2022-09-13T07:29:15.133Z,98895.63
2022-09-13T07:31:45.802Z,98894.03
2022-09-13T07:34:20.536Z,98899.53
2022-09-13T07:36:48.301Z,98906.16
2022-09-13T07:39:20.301Z,98903.91
2022-09-13T07:41:48.809Z,98909.53
2022-09-13T07:44:15.410Z,98900.16
2022-09-13T07:46:43.547Z,98912.34
2022-09-13T07:49:15.067Z,98906.44
2022-09-13T07:51:43.727Z,98896.19
2022-09-13T07:54:16.507Z,98901.94
2022-09-13T07:56:43.678Z,98905.69
2022-09-13T07:59:15.151Z,98914.03
2022-09-13T08:01:44.385Z,98917.19
2022-09-13T08:04:13.823Z,98919.72
2022-09-13T08:06:41.613Z,98899.44
2022-09-13T08:09:09.735Z,98905.84
2022-09-13T08:11:39.042Z,98905.97
2022-09-13T08:14:08.120Z,98905.25
2022-09-13T08:16:35.077Z,98905.75
2022-09-13T08:19:03.726Z,98909.28
2022-09-13T08:21:36.637Z,98916.19
2022-09-13T08:24:04.835Z,98921.59
2022-09-13T08:26:33.093Z,98926.34
2022-09-13T08:29:02.089Z,98943.59
2022-09-13T08:31:29.234Z,98947.28
2022-09-13T08:33:56.804Z,98952.09
2022-09-13T08:36:24.936Z,98969.81
2022-09-13T08:38:54.288Z,98963.22
2022-09-13T08:41:34.079Z,98954.25
2022-09-13T08:44:29.707Z,98970.06
2022-09-13T08:46:59.003Z,98962.25
2022-09-13T08:49:34.550Z,98959.25
2022-09-13T08:52:16.526Z,98949.94
2022-09-13T08:54:43.487Z,98952.75
2022-09-13T08:57:19.493Z,98936.69
2022-09-13T09:00:20.666Z,98928.44
2022-09-13T09:03:12.172Z,98924.78
2022-09-13T09:05:56.773Z,98934.50
2022-09-13T09:08:31.307Z,98948.47
2022-09-13T09:11:02.816Z,98939.91
2022-09-13T09:13:32.412Z,98946.28
2022-09-13T09:16:06.312Z,98949.94
2022-09-13T09:18:38.651Z,98969.19
2022-09-13T09:21:15.332Z,98955.44
2022-09-13T09:23:55.628Z,98953.50
2022-09-13T09:26:23.860Z,98942.28
2022-09-13T09:29:01.087Z,98933.03
2022-09-13T09:31:48.697Z,98938.31
2022-09-13T09:34:51.261Z,98927.44
2022-09-13T09:37:25.966Z,98924.38
2022-09-13T09:39:54.656Z,98928.38
2022-09-13T09:42:25.596Z,98925.25
2022-09-13T09:45:01.433Z,98919.69
2022-09-13T09:47:33.345Z,98912.66
2022-09-13T09:50:10.434Z,98904.81
2022-09-13T09:53:05.567Z,98904.81
2022-09-13T09:55:41.170Z,98896.16
2022-09-13T09:58:08.854Z,98890.63
2022-09-13T10:00:39.517Z,98898.50
2022-09-13T10:03:17.136Z,98889.06
2022-09-13T10:05:44.301Z,98893.78
2022-09-13T10:08:31.546Z,98883.53
2022-09-13T10:11:00.518Z,98885.50
2022-09-13T10:13:31.796Z,98884.31
2022-09-13T10:16:07.829Z,98884.72
2022-09-13T10:18:45.430Z,98900.88
2022-09-13T10:21:18.371Z,98891.00
2022-09-13T10:23:47.378Z,98881.56
2022-09-13T10:26:28.993Z,98885.09
2022-09-13T10:29:13.241Z,98883.53
2022-09-13T10:31:43.866Z,98870.09
2022-09-13T10:34:17.402Z,98862.63
2022-09-13T10:36:53.900Z,98870.09
2022-09-13T10:39:23.136Z,98863.75
2022-09-13T10:42:05.755Z,98852.69
2022-09-13T10:44:45.176Z,98851.81
2022-09-13T10:47:19.308Z,98843.06
2022-09-13T10:49:54.770Z,98846.97
2022-09-13T10:52:33.506Z,98839.81
2022-09-13T10:55:22.848Z,98838.19
2022-09-13T10:58:02.500Z,98841.31
2022-09-13T11:01:06.283Z,98821.44
2022-09-13T11:03:35.862Z,98822.88
2022-09-13T11:06:15.498Z,98814.88
2022-09-13T11:08:45.800Z,98813.66
2022-09-13T11:11:34.160Z,98816.53
2022-09-13T11:14:38.351Z,98818.09
2022-09-13T11:17:20.154Z,98812.44
2022-09-13T11:20:08.439Z,98803.63
2022-09-13T11:22:58.071Z,98790.00
2022-09-13T11:25:36.680Z,98790.66
2022-09-13T11:28:37.361Z,98792.06
2022-09-13T11:31:25.513Z,98783.56
2022-09-13T11:33:58.160Z,98782.28
2022-09-13T11:36:53.785Z,98781.47
2022-09-13T11:39:38.787Z,98781.28
2022-09-13T11:42:11.442Z,98770.13
2022-09-13T11:45:07.075Z,98770.00
2022-09-13T11:47:59.238Z,98762.78
2022-09-13T11:50:53.449Z,98755.47
2022-09-13T11:53:50.299Z,98754.41
2022-09-13T11:56:20.955Z,98755.56
2022-09-13T11:58:54.862Z,98753.59
2022-09-13T12:01:27.615Z,98753.09
2022-09-13T12:04:03.854Z,98747.31
2022-09-13T12:06:44.415Z,98741.47
2022-09-13T12:09:25.234Z,98741.00
2022-09-13T12:12:12.070Z,98741.50
2022-09-13T12:15:04.951Z,98737.75
2022-09-13T12:17:36.364Z,98718.31
2022-09-13T12:20:07.348Z,98710.84
2022-09-13T12:22:36.064Z,98719.75
2022-09-13T12:25:11.415Z,98710.88
2022-09-13T12:27:49.174Z,98710.84
2022-09-13T12:30:22.359Z,98712.06
2022-09-13T12:32:50.157Z,98703.50
2022-09-13T12:35:21.973Z,98697.50
2022-09-13T12:38:07.165Z,98698.03
2022-09-13T12:40:36.611Z,98691.91
2022-09-13T12:43:45.274Z,98691.47
2022-09-13T12:46:16.094Z,98676.00
2022-09-13T12:49:10.628Z,98672.38
2022-09-13T12:51:50.081Z,98663.94
2022-09-13T12:54:19.588Z,98659.63
2022-09-13T12:56:56.753Z,98663.44
2022-09-13T12:59:36.854Z,98659.22
2022-09-13T13:02:23.626Z,98660.22
2022-09-13T13:04:58.505Z,98653.78
2022-09-13T13:07:25.523Z,98658.16
2022-09-13T13:09:54.823Z,98656.94
2022-09-13T13:12:33.496Z,98645.63
2022-09-13T13:15:04.639Z,98643.38
2022-09-13T13:17:42.700Z,98646.72
2022-09-13T13:20:41.094Z,98638.91
2022-09-13T13:23:28.606Z,98635.97
2022-09-13T13:26:11.740Z,98632.72
2022-09-13T13:28:44.547Z,98628.72
2022-09-13T13:31:35.457Z,98630.13
2022-09-13T13:34:10.114Z,98631.88
2022-09-13T13:36:39.961Z,98633.28
2022-09-13T13:39:33.625Z,98621.47
2022-09-13T13:42:20.560Z,98621.47
2022-09-13T13:44:47.052Z,98615.31
2022-09-13T13:47:13.524Z,98613.13
2022-09-13T13:49:40.292Z,98607.06
2022-09-13T13:52:09.130Z,98613.56
2022-09-13T13:54:41.837Z,98603.41
2022-09-13T13:57:30.927Z,98606.00
2022-09-13T14:00:16.265Z,98605.31
2022-09-13T14:02:54.839Z,98601.47
2022-09-13T14:05:30.430Z,98592.97
2022-09-13T14:08:14.953Z,98594.78
2022-09-13T14:10:58.684Z,98598.06
2022-09-13T14:13:37.412Z,98604.56
2022-09-13T14:16:19.460Z,98606.31
2022-09-13T14:19:13.766Z,98603.59
2022-09-13T14:21:40.585Z,98602.44
2022-09-13T14:24:24.742Z,98600.69
2022-09-13T14:26:54.732Z,98596.41
2022-09-13T14:29:24.099Z,98595.44
2022-09-13T14:31:53.591Z,98587.63
2022-09-13T14:34:38.836Z,98587.81
2022-09-13T14:37:17.160Z,98585.91
2022-09-13T14:40:02.342Z,98584.41
2022-09-13T14:42:39.975Z,98585.25
2022-09-13T14:45:07.063Z,98573.44
2022-09-13T14:47:43.594Z,98572.66
2022-09-13T14:50:16.387Z,98579.78
2022-09-13T14:53:02.119Z,98583.69
2022-09-13T14:55:37.376Z,98581.97
2022-09-13T14:58:16.059Z,98578.66
2022-09-13T15:00:53.946Z,98578.06
2022-09-13T15:03:20.800Z,98571.34
2022-09-13T15:06:00.055Z,98563.84
2022-09-13T15:08:33.206Z,98566.50
2022-09-13T15:11:01.645Z,98570.97
2022-09-13T15:13:28.994Z,98557.84
2022-09-13T15:15:56.243Z,98561.66
2022-09-13T15:18:37.053Z,98560.78
2022-09-13T15:21:16.798Z,98559.84
2022-09-13T15:23:50.495Z,98553.63
2022-09-13T15:26:28.010Z,98554.47
2022-09-13T15:28:56.781Z,98557.13
2022-09-13T15:31:31.904Z,98561.06
2022-09-13T15:34:17.072Z,98554.94
2022-09-13T15:36:48.027Z,98554.81
2022-09-13T15:39:21.702Z,98558.78
2022-09-13T15:42:07.531Z,98557.44
2022-09-13T15:47:22.961Z,98545.81
2022-09-13T15:49:51.554Z,98550.91
2022-09-13T15:52:24.618Z,98547.06
2022-09-13T15:54:52.471Z,98541.22
2022-09-13T15:57:27.641Z,98544.28
2022-09-13T15:59:56.187Z,98538.19
2022-09-13T16:02:29.359Z,98541.25
2022-09-13T16:04:56.708Z,98541.44
2022-09-13T16:07:25.126Z,98545.16
2022-09-13T16:09:52.735Z,98544.81
2022-09-13T16:12:22.118Z,98537.69
2022-09-13T16:14:48.703Z,98531.25
2022-09-13T16:17:21.183Z,98526.91
2022-09-13T16:19:50.918Z,98524.28
2022-09-13T16:22:17.519Z,98526.81
2022-09-13T16:24:44.157Z,98527.16
2022-09-13T16:27:13.474Z,98528.69
2022-09-13T16:29:40.522Z,98530.16
2022-09-13T16:32:07.446Z,98526.31
2022-09-13T16:34:35.043Z,98531.63
2022-09-13T16:37:01.900Z,98525.97
2022-09-13T16:39:29.110Z,98521.84
2022-09-13T16:41:55.713Z,98526.00
2022-09-13T16:44:22.307Z,98527.78
2022-09-13T16:46:48.957Z,98519.28
2022-09-13T16:49:15.621Z,98526.59
2022-09-13T16:51:42.203Z,98521.59
2022-09-13T16:54:08.906Z,98528.91
2022-09-13T16:56:35.504Z,98532.69
2022-09-13T16:59:02.348Z,98536.34
2022-09-13T17:01:29.869Z,98540.03
2022-09-13T17:03:57.523Z,98537.34
2022-09-13T17:06:26.595Z,98532.72
2022-09-13T17:09:00.673Z,98534.41
2022-09-13T17:11:29.107Z,98541.59
2022-09-13T17:16:58.459Z,98551.81
2022-09-13T17:19:31.452Z,98557.84
2022-09-13T17:21:58.285Z,98558.72
2022-09-13T17:24:27.083Z,98561.22
2022-09-13T17:26:55.321Z,98555.72
2022-09-13T17:29:22.824Z,98559.41
2022-09-13T17:31:49.581Z,98553.16
2022-09-13T17:34:16.322Z,98552.84
2022-09-13T17:36:43.197Z,98545.03
2022-09-13T17:39:10.076Z,98534.91
2022-09-13T17:41:36.839Z,98546.47
2022-09-13T17:44:03.813Z,98541.44
2022-09-13T17:46:30.752Z,98536.78
2022-09-13T17:48:59.219Z,98533.38
2022-09-13T17:51:28.267Z,98538.63
2022-09-13T17:53:58.825Z,98541.91
2022-09-13T17:56:29.774Z,98536.47
2022-09-13T17:58:58.283Z,98540.84
2022-09-13T18:01:25.039Z,98544.44
2022-09-13T18:03:54.518Z,98539.72
2022-09-13T18:06:21.168Z,98546.88
2022-09-13T18:08:47.856Z,98549.25
2022-09-13T18:11:22.196Z,98548.53
2022-09-13T18:13:49.914Z,98543.84
2022-09-13T18:16:27.482Z,98542.38
2022-09-13T18:18:54.329Z,98552.66
2022-09-13T18:21:23.303Z,98553.06
2022-09-13T18:23:52.235Z,98547.19
2022-09-13T18:26:21.486Z,98553.16
2022-09-13T18:28:54.213Z,98551.63
2022-09-13T18:31:20.793Z,98560.75
2022-09-13T18:33:48.099Z,98567.09
2022-09-13T18:36:17.073Z,98571.84
2022-09-13T18:38:47.736Z,98581.38
2022-09-13T18:41:17.724Z,98580.19
2022-09-13T18:43:46.253Z,98579.06
2022-09-13T18:46:15.273Z,98579.88
2022-09-13T18:48:44.092Z,98576.34
2022-09-13T18:51:12.457Z,98570.44
2022-09-13T18:53:39.833Z,98562.97
2022-09-13T18:56:10.103Z,98562.56
2022-09-13T18:58:38.960Z,98562.63
2022-09-13T19:01:07.072Z,98559.91
2022-09-13T19:03:34.490Z,98564.28
2022-09-13T19:06:17.176Z,98567.44
2022-09-13T19:08:44.504Z,98572.56
2022-09-13T19:11:29.068Z,98572.97
2022-09-13T19:13:58.438Z,98572.97
2022-09-13T19:16:26.444Z,98577.69
2022-09-13T19:18:53.328Z,98562.34
2022-09-13T19:21:25.722Z,98560.00
2022-09-13T19:23:59.487Z,98567.91
2022-09-13T19:26:33.642Z,98572.22
2022-09-13T19:29:06.334Z,98571.47
2022-09-13T19:31:36.790Z,98562.78
2022-09-13T19:34:04.308Z,98566.75
2022-09-13T19:36:35.913Z,98558.47
2022-09-13T19:39:05.029Z,98561.25
2022-09-13T19:41:31.955Z,98556.50
2022-09-13T19:44:01.175Z,98554.56
2022-09-13T19:46:34.278Z,98547.88
2022-09-13T19:49:02.285Z,98545.94
2022-09-13T19:51:34.257Z,98549.88
2022-09-13T19:54:01.135Z,98545.53
2022-09-13T19:56:33.420Z,98542.78
2022-09-13T19:59:01.253Z,98552.25
2022-09-13T20:01:31.609Z,98548.72
2022-09-13T20:04:04.832Z,98556.59
2022-09-13T20:06:43.118Z,98553.44
2022-09-13T20:09:11.292Z,98553.44
2022-09-13T20:11:42.502Z,98538.09
2022-09-13T20:14:10.035Z,98534.53
2022-09-13T20:16:38.209Z,98530.22
2022-09-13T20:19:23.670Z,98525.91
2022-09-13T20:21:52.970Z,98532.19
2022-09-13T20:24:20.268Z,98526.31
2022-09-13T20:26:47.872Z,98535.38
2022-09-13T20:29:15.045Z,98535.38
2022-09-13T20:31:43.781Z,98549.88
2022-09-13T20:34:17.240Z,98547.88
2022-09-13T20:36:47.247Z,98546.66
2022-09-13T20:39:15.218Z,98541.13
2022-09-13T20:41:43.307Z,98536.81
2022-09-13T20:44:10.283Z,98542.28
2022-09-13T20:46:37.777Z,98537.13
2022-09-13T20:49:05.439Z,98545.78
2022-09-13T20:51:34.714Z,98535.56
2022-09-13T20:54:05.025Z,98538.28
2022-09-13T20:56:34.216Z,98541.81
2022-09-13T20:59:01.259Z,98536.72
2022-09-13T21:01:30.121Z,98541.44
2022-09-13T21:03:57.353Z,98535.16
2022-09-13T21:06:28.301Z,98525.72
2022-09-13T21:08:56.424Z,98530.44
2022-09-13T21:11:25.708Z,98526.47
2022-09-13T21:13:54.753Z,98511.53
2022-09-13T21:16:24.664Z,98515.47
2022-09-13T21:18:52.353Z,98500.50
2022-09-13T21:21:22.388Z,98505.19
2022-09-13T21:23:49.254Z,98498.91
2022-09-13T21:26:18.752Z,98494.19
2022-09-13T21:28:45.351Z,98492.22
2022-09-13T21:31:18.386Z,98488.69
2022-09-13T21:33:47.481Z,98483.94
2022-09-13T21:36:14.163Z,98486.28
2022-09-13T21:38:41.089Z,98484.72
2022-09-13T21:41:12.460Z,98478.44
2022-09-13T21:43:39.728Z,98480.38
2022-09-13T21:46:16.706Z,98476.06
2022-09-13T21:48:52.948Z,98472.50
2022-09-13T21:51:35.000Z,98472.50
2022-09-13T21:54:02.717Z,98473.22
2022-09-13T21:56:31.276Z,98473.22
2022-09-13T21:59:03.056Z,98471.25
2022-09-13T22:01:32.534Z,98476.31
2022-09-13T22:04:00.521Z,98473.97
2022-09-13T22:06:33.135Z,98474.38
2022-09-13T22:09:03.384Z,98472.03
2022-09-13T22:11:32.663Z,98469.69
2022-09-13T22:14:00.190Z,98474.41
2022-09-13T22:16:29.639Z,98476.78
2022-09-13T22:18:59.430Z,98474.84
2022-09-13T22:21:33.734Z,98479.19
2022-09-13T22:24:01.067Z,98477.22
2022-09-13T22:26:29.963Z,98476.47
2022-09-13T22:28:58.404Z,98472.94
2022-09-13T22:31:31.083Z,98468.69
2022-09-13T22:34:00.542Z,98469.47
2022-09-13T22:36:27.199Z,98463.56
2022-09-13T22:38:55.089Z,98468.66
2022-09-13T22:41:31.027Z,98465.91
2022-09-13T22:43:59.047Z,98452.97
2022-09-13T22:46:32.135Z,98458.06
2022-09-13T22:48:58.898Z,98457.28
2022-09-13T22:51:25.708Z,98460.44
2022-09-13T22:53:53.753Z,98462.78
2022-09-13T22:56:23.863Z,98463.97
2022-09-13T22:58:59.217Z,98465.13
2022-09-13T23:01:27.179Z,98464.31
2022-09-13T23:03:54.647Z,98455.31
2022-09-13T23:06:24.105Z,98450.22
2022-09-13T23:08:52.451Z,98450.22
2022-09-13T23:11:19.095Z,98451.78
2022-09-13T23:13:47.675Z,98452.19
2022-09-13T23:16:20.698Z,98445.47
2022-09-13T23:18:48.028Z,98447.81
2022-09-13T23:21:18.058Z,98445.06
2022-09-13T23:23:44.917Z,98443.09
2022-09-13T23:26:14.695Z,98444.25
2022-09-13T23:28:41.242Z,98451.72
2022-09-13T23:31:12.099Z,98451.31
2022-09-13T23:33:40.466Z,98455.22
2022-09-13T23:36:08.338Z,98454.03
2022-09-13T23:38:35.171Z,98447.72
2022-09-13T23:41:02.065Z,98447.72
2022-09-13T23:43:28.644Z,98440.66
2022-09-13T23:45:55.588Z,98444.19
2022-09-13T23:48:22.475Z,98435.94
2022-09-13T23:50:49.077Z,98432.78
2022-09-13T23:53:15.592Z,98439.44
2022-09-13T23:55:42.111Z,98426.50
2022-09-13T23:58:08.607Z,98430.41
